Jump to content
  • Member Statistics

    15,388
    Total Members
    7,904
    Most Online
    WesL
    Newest Member
    WesL
    Joined
Baroclinic Zone

2018/19 Winter Banter and General Discussion - We winter of YORE

Recommended Posts

Just now, CoastalWx said:

S+ and 65kts DEN. Holy crap.

wow...never seen a METAR that extreme outside of MWN.

METAR KDEN 131653Z 34048G65KT M1/4SM R35L/2000V2600FT SN FZFG BKN004 OVC015 M01/M01 A2900 RMK AO2 PK WND 34065/1653 TWR VIS 1 SLP802 P0002 T10111011 $ =

Share this post


Link to post
Share on other sites
Just now, dendrite said:

If you don't like the weather in New England wait 5 minutes....

 

Yeah right. The interior puts us to shame.

I sort of laugh when I hear people say that around here...they have no idea.

Share this post


Link to post
Share on other sites
2 hours ago, dendrite said:

If you don't like the weather in New England wait 5 minutes....

 

Yeah right. The interior puts us to shame.

I realized this rather quickly after living in Denver and then Boulder for about 4 years (steamboat for a year as well during there second snowiest winter on record, that was fun.) I remember one day being mid 70's in Denver and the next day a full on blizzard. In a synoptic view though I'm still more interested in Nor'easters and New England weather in general. Those obs out of DIA are just crazy though.

Share this post


Link to post
Share on other sites
2 minutes ago, eyewall said:

Gusts to 84 knots at Colorado Springs. That's 97 miles an hour.

lol...wow

KCOS 131912Z 34047G84KT 1/8SM R17L/0500V1000FT +SN BLSN VV008 M03/M03 A2905 RMK AO2 PK WND 32084/1904 T10281028 PNO $ =

Share this post


Link to post
Share on other sites
1 minute ago, dendrite said:

lol...wow

KCOS 131912Z 34047G84KT 1/8SM R17L/0500V1000FT +SN BLSN VV008 M03/M03 A2905 RMK AO2 PK WND 32084/1904 T10281028 PNO $ =

Take that DEN.

That's a NSFW METAR.

  • Like 2

Share this post


Link to post
Share on other sites

Create an account or sign in to comment

You need to be a member in order to leave a comment

Create an account

Sign up for a new account in our community. It's easy!

Register a new account

Sign in

Already have an account? Sign in here.

Sign In Now

  • Recently Browsing   1 member

×